This is the latest recevied weather packets stored in our database for station/object KE9DBJ-13. If no packets are shown the sender has not sent any weather packets the latest 10 day(s).
| Time | Temp. | Humidity | Pressure | Rain* | Wind** | Luminosity | Snow |
|---|---|---|---|---|---|---|---|
| 1788502803 | 22.78° C | 92% | 1014.8 hPa | 0 mm | - | - | - |
| 1788502203 | 22.78° C | 92% | 1014.8 hPa | 0 mm | - | - | - |
| 1788501603 | 22.78° C | 92% | 1014.8 hPa | 0 mm | - | - | - |
| 1788501003 | 22.78° C | 92% | 1014.9 hPa | 0 mm | - | - | - |
| 1788500403 | 22.78° C | 92% | 1014.9 hPa | 0 mm | - | - | - |
| 1788499803 | 22.78° C | 92% | 1014.9 hPa | 0 mm | - | - | - |
| 1788499202 | 23.33° C | 92% | 1014.9 hPa | 0 mm | - | - | - |
| 1788498602 | 23.33° C | 92% | 1014.9 hPa | 0 mm | - | - | - |
| 1788498002 | 23.33° C | 92% | 1014.9 hPa | 0 mm | - | - | - |
| 1788497402 | 23.33° C | 92% | 1014.7 hPa | 0 mm | - | - | - |
| 1788496802 | 23.33° C | 92% | 1014.7 hPa | 0 mm | - | - | - |
| 1788496202 | 23.33° C | 92% | 1014.7 hPa | 0 mm | - | - | - |
| 1788495602 | 23.33° C | 91% | 1014.7 hPa | 0 mm | - | - | - |
| 1788495003 | 23.33° C | 91% | 1014.7 hPa | 0 mm | - | - | - |
| 1788494403 | 23.33° C | 91% | 1014.7 hPa | 0 mm | - | - | - |
| 1788493203 | 23.89° C | 91% | 1014.7 hPa | 0 mm | - | - | - |
| 1788492603 | 23.89° C | 91% | 1014.7 hPa | 0 mm | - | - | - |
| 1788492003 | 23.89° C | 91% | 1014.7 hPa | 0 mm | - | - | - |
| 1788490803 | 24.44° C | 91% | 1014.7 hPa | 0 mm | - | - | - |
| 1788474003 | 32.78° C | 65% | 1012.7 hPa | 0 mm | - | - | - |
| 1788472803 | 33.33° C | 63% | 1012.6 hPa | 0 mm | - | - | - |
| 1788472203 | 34.44° C | 57% | 1012.6 hPa | 0 mm | - | - | - |
| 1788471003 | 35° C | 58% | 1012.7 hPa | 0 mm | - | - | - |
| 1788469202 | 36.67° C | 48% | 1012.8 hPa | 0 mm | - | - | - |
| 1788467402 | 36.11° C | 49% | 1013.2 hPa | 0 mm | - | - | - |
* Rain latest hour (hover to see other rain measurements)
** Current wind speed in m/s (hover to see current wind gust speed)